createdAt,value
2019-05-13T00:00:38.103Z,3.80
2019-05-13T00:03:04.936Z,4.03
2019-05-13T00:05:33.707Z,2.70
2019-05-13T00:08:00.687Z,2.37
2019-05-13T00:10:27.413Z,4.77
2019-05-13T00:12:54.254Z,4.73
2019-05-13T00:15:21.304Z,2.47
2019-05-13T00:17:48.035Z,2.57
2019-05-13T00:20:14.880Z,4.87
2019-05-13T00:22:41.718Z,3.03
2019-05-13T00:25:08.578Z,4.57
2019-05-13T00:27:35.405Z,4.57
2019-05-13T00:30:04.328Z,3.43
2019-05-13T00:32:33.560Z,3.10
2019-05-13T00:34:59.624Z,4.13
2019-05-13T00:37:26.457Z,4.10
2019-05-13T00:39:54.312Z,2.93
2019-05-13T00:42:21.166Z,2.20
2019-05-13T00:44:48.006Z,2.93
2019-05-13T00:47:14.746Z,3.67
2019-05-13T00:49:43.568Z,3.33
2019-05-13T00:52:09.970Z,2.40
2019-05-13T00:54:36.813Z,3.00
2019-05-13T00:57:04.145Z,4.77
2019-05-13T00:59:33.640Z,2.70
2019-05-13T01:01:59.701Z,2.23
2019-05-13T01:04:26.536Z,2.00
2019-05-13T01:06:53.749Z,2.23
2019-05-13T01:09:20.696Z,3.40
2019-05-13T01:11:47.466Z,2.53
2019-05-13T01:14:14.517Z,2.70
2019-05-13T01:16:41.252Z,2.43
2019-05-13T01:19:07.992Z,3.63
2019-05-13T01:21:34.832Z,4.40
2019-05-13T01:24:03.787Z,4.30
2019-05-13T01:26:30.154Z,3.13
2019-05-13T01:28:57.252Z,3.57
2019-05-13T01:31:24.118Z,2.50
2019-05-13T01:33:50.965Z,3.67
2019-05-13T01:36:17.766Z,3.00
2019-05-13T01:38:44.564Z,3.67
2019-05-13T01:41:13.490Z,2.13
2019-05-13T01:43:39.799Z,3.97
2019-05-13T01:46:06.729Z,3.10
2019-05-13T01:48:33.503Z,3.93
2019-05-13T01:51:00.514Z,1.73
2019-05-13T01:53:27.359Z,2.80
2019-05-13T01:55:54.199Z,1.90
2019-05-13T01:58:23.390Z,2.53
2019-05-13T02:00:51.632Z,1.47
2019-05-13T02:03:18.015Z,2.47
2019-05-13T02:05:44.810Z,1.73
2019-05-13T02:08:14.037Z,2.20
2019-05-13T02:10:39.974Z,2.10
2019-05-13T02:13:06.801Z,2.30
2019-05-13T02:15:33.838Z,2.53
2019-05-13T02:18:00.692Z,2.10
2019-05-13T02:20:27.529Z,1.63
2019-05-13T02:22:54.269Z,2.40
2019-05-13T02:25:21.012Z,2.10
2019-05-13T02:27:47.854Z,1.87
2019-05-13T02:30:15.993Z,2.60
2019-05-13T02:32:43.365Z,2.20
2019-05-13T02:35:13.492Z,4.47
2019-05-13T02:37:42.519Z,2.23
2019-05-13T02:40:07.290Z,4.93
2019-05-13T02:42:34.176Z,1.90
2019-05-13T02:45:03.819Z,2.13
2019-05-13T02:47:29.344Z,1.93
2019-05-13T02:50:00.626Z,6.40
2019-05-13T02:52:24.870Z,3.47
2019-05-13T02:54:52.794Z,1.77
2019-05-13T02:57:23.037Z,3.57
2019-05-13T02:59:48.464Z,1.37
2019-05-13T03:02:15.327Z,1.93
2019-05-13T03:04:43.470Z,3.90
2019-05-13T03:07:11.954Z,2.27
2019-05-13T03:09:42.064Z,1.20
2019-05-13T03:12:07.591Z,1.40
2019-05-13T03:14:34.431Z,2.40
2019-05-13T03:17:03.295Z,2.00
2019-05-13T03:19:32.906Z,1.87
2019-05-13T03:21:58.028Z,4.00
2019-05-13T03:24:24.870Z,2.83
2019-05-13T03:26:53.234Z,3.20
2019-05-13T03:29:22.128Z,5.77
2019-05-13T03:31:48.774Z,2.07
2019-05-13T03:34:16.656Z,2.00
2019-05-13T03:36:45.784Z,2.17
2019-05-13T03:39:16.047Z,2.17
2019-05-13T03:41:42.351Z,3.43
2019-05-13T03:44:08.894Z,1.90
2019-05-13T03:46:35.661Z,1.40
2019-05-13T03:49:02.623Z,1.83
2019-05-13T03:51:32.492Z,2.47
2019-05-13T03:53:58.032Z,2.53
2019-05-13T03:56:24.877Z,3.13
2019-05-13T03:58:53.633Z,8.00
2019-05-13T04:01:22.400Z,1.70
2019-05-13T04:03:48.877Z,3.00
2019-05-13T04:06:15.638Z,6.43
2019-05-13T04:08:43.660Z,1.53
2019-05-13T04:11:12.563Z,3.00
2019-05-13T04:13:42.601Z,3.73
2019-05-13T04:16:07.796Z,3.40
2019-05-13T04:18:35.155Z,2.33
2019-05-13T04:21:02.992Z,2.60
2019-05-13T04:23:32.276Z,1.33
2019-05-13T04:25:58.342Z,2.00
2019-05-13T04:28:25.178Z,3.33
2019-05-13T04:30:52.749Z,2.40
2019-05-13T04:33:22.531Z,2.23
2019-05-13T04:35:48.174Z,2.10
2019-05-13T04:38:15.105Z,1.77
2019-05-13T04:40:42.594Z,1.80
2019-05-13T04:43:12.780Z,2.20
2019-05-13T04:45:37.795Z,2.13
2019-05-13T04:48:04.884Z,2.60
2019-05-13T04:50:32.972Z,6.00
2019-05-13T04:53:03.041Z,4.37
2019-05-13T04:55:28.527Z,3.97
2019-05-13T04:57:55.371Z,2.43
2019-05-13T05:00:23.494Z,3.47
2019-05-13T05:02:55.027Z,2.33
2019-05-13T05:05:22.190Z,2.73
2019-05-13T05:07:47.553Z,2.83
2019-05-13T05:10:23.388Z,2.60
2019-05-13T05:12:42.870Z,2.60
2019-05-13T05:15:12.066Z,3.03
2019-05-13T05:17:38.089Z,3.33
2019-05-13T05:20:04.839Z,4.17
2019-05-13T05:22:31.672Z,2.67
2019-05-13T05:24:58.512Z,3.63
2019-05-13T05:27:25.355Z,3.20
2019-05-13T05:29:52.197Z,2.47
2019-05-13T05:32:21.277Z,1.70
2019-05-13T05:34:47.427Z,2.97
2019-05-13T05:37:14.256Z,3.93
2019-05-13T05:39:42.006Z,3.77
2019-05-13T05:42:10.706Z,3.00
2019-05-13T05:44:37.446Z,2.53
2019-05-13T05:47:04.294Z,2.70
2019-05-13T05:49:32.013Z,2.40
2019-05-13T05:52:01.544Z,2.20
2019-05-13T05:54:27.582Z,3.50
2019-05-13T05:56:54.418Z,2.40
2019-05-13T05:59:21.910Z,2.53
2019-05-13T06:01:48.823Z,2.00
2019-05-13T06:04:15.670Z,1.70
2019-05-13T06:06:42.519Z,7.37
2019-05-13T06:09:12.071Z,2.47
2019-05-13T06:11:38.131Z,2.50
2019-05-13T06:14:04.874Z,2.90
2019-05-13T06:16:32.119Z,4.70
2019-05-13T06:19:01.448Z,2.23
2019-05-13T06:21:27.889Z,5.10
2019-05-13T06:23:54.898Z,2.87
2019-05-13T06:26:23.685Z,4.67
2019-05-13T06:28:52.091Z,1.70
2019-05-13T06:31:18.604Z,1.80
2019-05-13T06:33:45.438Z,3.33
2019-05-13T06:36:12.285Z,2.40
2019-05-13T06:38:39.132Z,2.10
2019-05-13T06:41:10.890Z,2.57
2019-05-13T06:43:34.347Z,2.43
2019-05-13T06:46:01.869Z,3.37
2019-05-13T06:48:28.740Z,1.93
2019-05-13T06:50:55.586Z,1.70
2019-05-13T06:53:22.424Z,2.90
2019-05-13T06:55:49.266Z,2.13
2019-05-13T06:58:16.012Z,2.43
2019-05-13T07:00:42.977Z,2.00
2019-05-13T07:03:11.948Z,4.87
2019-05-13T07:05:38.412Z,4.13
2019-05-13T07:08:05.220Z,3.27
2019-05-13T07:10:32.221Z,4.43
2019-05-13T07:12:58.900Z,3.53
2019-05-13T07:15:26.152Z,4.07
2019-05-13T07:17:52.891Z,2.63
2019-05-13T07:20:22.317Z,2.97
2019-05-13T07:22:49.138Z,3.40
2019-05-13T07:25:15.893Z,2.63
2019-05-13T07:27:42.716Z,2.80
2019-05-13T07:30:11.359Z,3.13
2019-05-13T07:32:38.308Z,5.93
2019-05-13T07:35:05.087Z,4.43
2019-05-13T07:37:31.980Z,2.47
2019-05-13T07:39:58.871Z,2.73
2019-05-13T07:42:25.710Z,3.53
2019-05-13T07:44:52.553Z,4.00
2019-05-13T07:47:19.292Z,5.67
2019-05-13T07:49:46.030Z,4.53
2019-05-13T07:52:12.872Z,2.60
2019-05-13T07:54:41.526Z,2.70
2019-05-13T07:57:08.093Z,5.10
2019-05-13T07:59:34.941Z,5.60
2019-05-13T08:02:02.557Z,2.87
2019-05-13T08:04:29.435Z,4.27
2019-05-13T08:06:56.236Z,2.37
2019-05-13T08:09:23.019Z,2.43
2019-05-13T08:12:02.403Z,3.40
2019-05-13T08:14:18.338Z,4.93
2019-05-13T08:16:45.174Z,4.57
2019-05-13T08:19:12.445Z,3.77
2019-05-13T08:21:41.692Z,5.77
2019-05-13T08:24:08.084Z,3.57
2019-05-13T08:26:38.042Z,4.07
2019-05-13T08:29:05.931Z,4.00
2019-05-13T08:31:32.375Z,6.80
2019-05-13T08:33:59.322Z,4.77
2019-05-13T08:36:26.161Z,3.73
2019-05-13T08:38:53.003Z,4.83
2019-05-13T08:41:23.340Z,4.60
2019-05-13T08:43:48.224Z,6.10
2019-05-13T08:46:14.965Z,8.40
2019-05-13T08:48:42.913Z,5.73
2019-05-13T08:51:11.655Z,4.20
2019-05-13T08:53:38.571Z,4.23
2019-05-13T08:56:05.407Z,4.40
2019-05-13T08:58:32.320Z,6.67
2019-05-13T09:01:01.890Z,5.07
2019-05-13T09:03:27.667Z,6.23
2019-05-13T09:05:54.511Z,4.47
2019-05-13T09:08:22.328Z,8.00
2019-05-13T09:10:51.906Z,5.03
2019-05-13T09:13:18.207Z,5.13
2019-05-13T09:15:44.947Z,3.53
2019-05-13T09:18:11.786Z,6.43
2019-05-13T09:20:38.641Z,4.00
2019-05-13T09:23:05.476Z,3.17
2019-05-13T09:25:32.219Z,5.57
2019-05-13T09:27:59.057Z,5.33
2019-05-13T09:30:27.326Z,5.83
2019-05-13T09:32:54.476Z,4.57
2019-05-13T09:35:22.177Z,5.47
2019-05-13T09:37:51.458Z,4.03
2019-05-13T09:40:17.667Z,7.20
2019-05-13T09:42:51.681Z,3.23
2019-05-13T09:45:12.988Z,4.33
2019-05-13T09:47:41.817Z,5.20
2019-05-13T09:50:08.157Z,3.77
2019-05-13T09:52:34.946Z,7.70
2019-05-13T09:57:32.190Z,5.73
2019-05-13T09:59:58.651Z,4.60
2019-05-13T10:02:25.492Z,4.20
2019-05-13T10:04:52.328Z,7.90
2019-05-13T10:07:19.169Z,5.63
2019-05-13T10:09:48.338Z,4.37
2019-05-13T10:12:14.352Z,4.47
2019-05-13T10:14:41.181Z,6.17
2019-05-13T10:17:07.971Z,5.20
2019-05-13T10:19:34.815Z,6.30
2019-05-13T10:22:01.549Z,5.90
2019-05-13T10:24:28.393Z,3.63
2019-05-13T10:26:55.392Z,4.43
2019-05-13T10:29:22.602Z,4.47
2019-05-13T10:31:51.382Z,8.07
2019-05-13T10:34:18.038Z,5.10
2019-05-13T10:36:44.863Z,8.10
2019-05-13T10:39:12.041Z,5.10
2019-05-13T10:41:42.027Z,4.03
2019-05-13T10:44:07.839Z,3.07
2019-05-13T10:46:34.678Z,4.00
2019-05-13T10:49:02.057Z,3.10
2019-05-13T10:51:29.081Z,3.47
2019-05-13T10:53:59.505Z,2.77
2019-05-13T10:56:24.416Z,3.40
2019-05-13T10:58:53.373Z,4.40
2019-05-13T11:01:22.330Z,3.10
2019-05-13T11:03:48.306Z,2.73
2019-05-13T11:06:15.149Z,6.10
2019-05-13T11:08:42.446Z,3.73
2019-05-13T11:11:09.448Z,4.83
2019-05-13T11:13:52.102Z,4.50
2019-05-13T11:16:06.404Z,2.60
2019-05-13T11:18:33.195Z,2.87
2019-05-13T11:21:01.993Z,3.37
2019-05-13T11:23:28.464Z,3.13
2019-05-13T11:25:55.308Z,4.73
2019-05-13T11:28:22.046Z,3.40
2019-05-13T11:30:48.785Z,6.37
2019-05-13T11:33:15.729Z,3.80
2019-05-13T11:35:42.570Z,4.83
2019-05-13T11:38:11.767Z,5.00
2019-05-13T11:40:37.791Z,4.43
2019-05-13T11:43:04.633Z,3.67
2019-05-13T11:45:31.699Z,3.87
2019-05-13T11:47:58.521Z,4.10
2019-05-13T11:50:25.365Z,4.73
2019-05-13T11:52:52.748Z,3.60
2019-05-13T11:55:23.001Z,8.80
2019-05-13T11:57:48.140Z,2.07
2019-05-13T12:00:14.988Z,4.43
2019-05-13T12:02:43.463Z,4.67
2019-05-13T12:05:10.304Z,3.57
2019-05-13T12:07:37.046Z,5.03
2019-05-13T12:10:04.090Z,3.23
2019-05-13T12:12:34.379Z,4.40
2019-05-13T12:15:22.489Z,4.50
2019-05-13T12:17:27.889Z,4.47
2019-05-13T12:19:54.633Z,5.90
2019-05-13T12:22:23.003Z,4.00
2019-05-13T12:24:51.540Z,3.57
2019-05-13T12:27:18.542Z,2.47
2019-05-13T12:29:45.377Z,5.00
2019-05-13T12:32:13.705Z,3.63
2019-05-13T12:34:45.403Z,4.43
2019-05-13T12:37:09.075Z,7.20
2019-05-13T12:39:35.916Z,6.47
2019-05-13T12:42:03.350Z,3.57
2019-05-13T12:44:31.588Z,5.33
2019-05-13T12:46:58.501Z,4.37
2019-05-13T12:49:31.927Z,7.83
2019-05-13T12:52:00.367Z,4.00
2019-05-13T12:54:23.639Z,6.03
2019-05-13T12:56:52.500Z,3.87
2019-05-13T12:59:19.149Z,4.63
2019-05-13T13:01:47.888Z,3.47
2019-05-13T13:04:14.688Z,5.83
2019-05-13T13:06:45.099Z,3.50
2019-05-13T13:09:12.474Z,6.80
2019-05-13T13:11:38.479Z,4.63
2019-05-13T13:14:09.614Z,6.37
2019-05-13T13:16:35.102Z,8.37
2019-05-13T13:19:02.625Z,6.43
2019-05-13T13:21:36.801Z,8.40
2019-05-13T13:23:58.247Z,5.07
2019-05-13T13:26:25.373Z,4.20
2019-05-13T13:28:55.775Z,5.40
2019-05-13T13:31:24.707Z,4.57
2019-05-13T13:33:49.067Z,6.63
2019-05-13T13:36:17.544Z,5.27
2019-05-13T13:38:44.390Z,7.97
2019-05-13T13:41:21.822Z,9.93
2019-05-13T13:43:42.022Z,6.80
2019-05-13T13:46:31.159Z,8.67
2019-05-13T13:48:36.778Z,5.87
2019-05-13T13:51:04.894Z,8.90
2019-05-13T13:53:33.242Z,7.13
2019-05-13T13:56:02.191Z,4.67
2019-05-13T13:58:28.612Z,9.23
2019-05-13T14:01:07.259Z,6.27
2019-05-13T14:03:23.971Z,4.67
2019-05-13T14:05:53.690Z,6.47
2019-05-13T14:06:25.323Z,5.03
2019-05-13T14:08:21.527Z,9.03
2019-05-13T14:10:47.770Z,5.97
2019-05-13T14:13:14.511Z,7.03
2019-05-13T14:15:41.841Z,5.57
2019-05-13T14:18:11.255Z,4.13
2019-05-13T14:20:37.091Z,6.90
2019-05-13T14:23:03.924Z,8.87
2019-05-13T14:25:32.497Z,4.60
2019-05-13T14:27:59.302Z,3.57
2019-05-13T14:30:26.189Z,7.50
2019-05-13T14:32:52.934Z,4.27
2019-05-13T14:35:21.949Z,9.43
2019-05-13T14:37:48.247Z,2.77
2019-05-13T14:40:15.090Z,5.13
2019-05-13T14:42:42.642Z,3.90
2019-05-13T14:45:12.169Z,4.27
2019-05-13T14:47:38.586Z,5.20
2019-05-13T14:50:05.429Z,4.60
2019-05-13T14:52:32.401Z,7.03
2019-05-13T14:55:02.001Z,3.47
2019-05-13T14:57:27.796Z,5.27
2019-05-13T14:59:54.639Z,7.63
2019-05-13T15:02:21.476Z,3.17
2019-05-13T15:04:48.323Z,4.47
2019-05-13T15:07:15.167Z,4.87
2019-05-13T15:09:42.261Z,5.97
2019-05-13T15:12:09.224Z,4.50
2019-05-13T15:14:36.121Z,5.80
2019-05-13T15:17:07.308Z,6.27
2019-05-13T15:19:31.789Z,4.80
2019-05-13T15:21:58.875Z,5.77
2019-05-13T15:24:25.955Z,7.63
2019-05-13T15:26:52.763Z,10.20
2019-05-13T15:29:22.107Z,3.27
2019-05-13T15:31:48.090Z,5.30
2019-05-13T15:34:14.924Z,5.17
2019-05-13T15:36:42.075Z,7.27
2019-05-13T15:39:08.926Z,5.10
2019-05-13T15:41:37.405Z,3.63
2019-05-13T15:44:04.450Z,7.60
2019-05-13T15:46:32.327Z,4.20
2019-05-13T15:49:01.077Z,6.87
2019-05-13T15:51:27.944Z,5.93
2019-05-13T15:53:57.150Z,7.87
2019-05-13T15:56:23.069Z,10.37
2019-05-13T15:58:52.667Z,3.83
2019-05-13T16:01:18.593Z,4.57
2019-05-13T16:03:45.426Z,3.43
2019-05-13T16:06:12.285Z,3.83
2019-05-13T16:08:39.127Z,2.47
2019-05-13T16:11:06.166Z,3.23
2019-05-13T16:13:33.300Z,6.53
2019-05-13T16:16:01.520Z,6.63
2019-05-13T16:18:28.524Z,4.67
2019-05-13T16:20:55.874Z,4.50
2019-05-13T16:23:22.618Z,6.13
2019-05-13T16:25:51.996Z,4.70
2019-05-13T16:28:18.051Z,5.90
2019-05-13T16:30:46.887Z,9.63
2019-05-13T16:33:14.039Z,4.93
2019-05-13T16:35:42.424Z,5.80
2019-05-13T16:38:11.315Z,4.83
2019-05-13T16:40:37.895Z,4.17
2019-05-13T16:43:05.086Z,7.27
2019-05-13T16:45:31.878Z,5.60
2019-05-13T16:48:01.527Z,3.80
2019-05-13T16:50:27.453Z,5.53
2019-05-13T16:52:54.237Z,3.00
2019-05-13T16:55:21.240Z,4.17
2019-05-13T16:57:48.124Z,5.03
2019-05-13T17:00:14.967Z,2.30
2019-05-13T17:02:42.254Z,1.80
2019-05-13T17:05:09.270Z,4.47
2019-05-13T17:07:36.113Z,5.40
2019-05-13T17:10:03.730Z,3.33
2019-05-13T17:12:31.727Z,2.97
2019-05-13T17:14:58.582Z,4.27
2019-05-13T17:17:25.418Z,3.67
2019-05-13T17:19:54.006Z,3.10
2019-05-13T17:22:20.744Z,10.50
2019-05-13T17:24:47.584Z,1.93
2019-05-13T17:27:14.430Z,4.60
2019-05-13T17:29:41.268Z,2.37
2019-05-13T17:32:08.113Z,1.47
2019-05-13T17:34:34.904Z,1.93
2019-05-13T17:37:02.645Z,1.70
2019-05-13T17:39:31.931Z,1.77
2019-05-13T17:41:58.156Z,1.83
2019-05-13T17:44:24.987Z,2.27
2019-05-13T17:46:52.295Z,1.63
2019-05-13T17:49:19.172Z,2.33
2019-05-13T17:51:46.017Z,2.23
2019-05-13T17:54:12.859Z,1.90
2019-05-13T17:56:39.705Z,2.27
2019-05-13T17:59:06.544Z,3.63
2019-05-13T18:01:33.382Z,4.13
2019-05-13T18:04:02.417Z,3.07
2019-05-13T18:06:28.813Z,4.83
2019-05-13T18:08:55.681Z,4.67
2019-05-13T18:11:22.457Z,4.10
2019-05-13T18:13:51.689Z,5.70
2019-05-13T18:16:17.715Z,3.40
2019-05-13T18:18:47.424Z,4.80
2019-05-13T18:21:13.035Z,4.60
2019-05-13T18:23:41.467Z,2.70
2019-05-13T18:26:08.850Z,2.23
2019-05-13T18:28:37.048Z,3.13
2019-05-13T18:31:04.570Z,4.90
2019-05-13T18:33:33.808Z,3.10
2019-05-13T18:36:01.867Z,2.60
2019-05-13T18:38:31.129Z,4.23
2019-05-13T18:40:57.398Z,4.77
2019-05-13T18:43:24.249Z,3.87
2019-05-13T18:45:52.647Z,2.97
2019-05-13T18:48:21.761Z,3.50
2019-05-13T18:50:48.201Z,5.20
2019-05-13T18:53:15.185Z,6.27
2019-05-13T18:55:42.191Z,6.17
2019-05-13T18:58:08.967Z,3.33
2019-05-13T19:00:35.893Z,6.77
2019-05-13T19:03:02.961Z,5.70
2019-05-13T19:05:31.715Z,5.87
2019-05-13T19:07:58.187Z,6.30
2019-05-13T19:10:25.034Z,6.10
2019-05-13T19:12:51.759Z,4.63
2019-05-13T19:15:18.503Z,3.70
2019-05-13T19:17:45.659Z,3.43
2019-05-13T19:20:12.395Z,2.67
2019-05-13T19:22:41.145Z,4.37
2019-05-13T19:25:07.675Z,3.83
2019-05-13T19:27:34.455Z,3.67
2019-05-13T19:30:01.469Z,6.53
2019-05-13T19:32:28.855Z,4.07
2019-05-13T19:34:55.693Z,4.50
2019-05-13T19:37:22.676Z,4.67
2019-05-13T19:39:49.479Z,4.63
2019-05-13T19:42:16.316Z,5.87
2019-05-13T19:44:43.181Z,5.27
2019-05-13T19:47:12.219Z,12.93
2019-05-13T19:49:38.485Z,10.80
2019-05-13T19:52:05.323Z,10.13
2019-05-13T19:54:32.183Z,7.00
2019-05-13T19:57:01.207Z,7.17
2019-05-13T19:59:27.391Z,7.87
2019-05-13T20:01:54.636Z,8.03
2019-05-13T20:04:21.861Z,5.07
2019-05-13T20:06:51.931Z,5.83
2019-05-13T20:09:21.485Z,9.60
2019-05-13T20:11:47.816Z,7.57
2019-05-13T20:14:14.682Z,8.07
2019-05-13T20:16:41.755Z,6.27
2019-05-13T20:19:11.827Z,4.93
2019-05-13T20:21:42.390Z,5.83
2019-05-13T20:24:08.187Z,7.07
2019-05-13T20:26:35.760Z,5.73
2019-05-13T20:29:02.698Z,5.37
2019-05-13T20:31:29.539Z,6.30
2019-05-13T20:33:56.989Z,5.87
2019-05-13T20:36:23.835Z,4.20
2019-05-13T20:38:51.566Z,5.07
2019-05-13T20:41:18.512Z,7.93
2019-05-13T20:43:45.277Z,10.87
2019-05-13T20:46:12.221Z,9.93
2019-05-13T20:48:41.203Z,9.57
2019-05-13T20:51:08.054Z,9.50
2019-05-13T20:53:34.904Z,9.20
2019-05-13T20:56:01.954Z,7.90
2019-05-13T20:58:31.602Z,8.93
2019-05-13T21:00:57.988Z,8.83
2019-05-13T21:03:24.831Z,7.90
2019-05-13T21:05:52.068Z,9.57
2019-05-13T21:08:21.987Z,8.10
2019-05-13T21:10:48.726Z,8.80
2019-05-13T21:13:15.467Z,9.90
2019-05-13T21:15:42.562Z,9.90
2019-05-13T21:18:11.469Z,7.20
2019-05-13T21:20:38.455Z,9.40
2019-05-13T21:23:05.293Z,7.83
2019-05-13T21:25:32.033Z,10.00
2019-05-13T21:27:59.154Z,5.53
2019-05-13T21:30:26.133Z,6.30
2019-05-13T21:32:52.875Z,6.73
2019-05-13T21:35:21.222Z,5.90
2019-05-13T21:37:51.058Z,7.33
2019-05-13T21:40:17.648Z,6.23
2019-05-13T21:42:44.429Z,7.07
2019-05-13T21:45:11.687Z,9.57
2019-05-13T21:47:38.620Z,8.50
2019-05-13T21:50:05.363Z,6.33
2019-05-13T21:52:33.426Z,7.00
2019-05-13T21:55:01.832Z,9.53
2019-05-13T21:57:32.922Z,8.33
2019-05-13T21:59:57.241Z,5.93
2019-05-13T22:02:24.080Z,9.00
2019-05-13T22:04:52.558Z,6.87
2019-05-13T22:07:19.395Z,8.37
2019-05-13T22:09:46.270Z,7.30
2019-05-13T22:12:13.285Z,7.50
2019-05-13T22:14:41.180Z,6.77
2019-05-13T22:17:08.094Z,10.93
2019-05-13T22:19:34.855Z,10.90
2019-05-13T22:22:02.472Z,6.50
2019-05-13T22:24:31.215Z,9.47
2019-05-13T22:26:58.124Z,11.10
2019-05-13T22:29:24.970Z,10.10
2019-05-13T22:31:52.224Z,8.00
2019-05-13T22:34:21.079Z,10.33
2019-05-13T22:36:47.755Z,9.97
2019-05-13T22:39:14.483Z,11.27
2019-05-13T22:41:42.054Z,7.07
2019-05-13T22:44:11.425Z,12.20
2019-05-13T22:46:37.776Z,8.63
2019-05-13T22:49:04.719Z,9.87
2019-05-13T22:51:32.104Z,8.07
2019-05-13T22:53:59.530Z,13.67
2019-05-13T22:56:26.266Z,10.07
2019-05-13T22:58:53.109Z,9.53
2019-05-13T23:01:21.804Z,8.43
2019-05-13T23:03:48.943Z,7.70
2019-05-13T23:06:16.512Z,9.40
2019-05-13T23:08:44.571Z,5.53
2019-05-13T23:11:11.308Z,8.50
2019-05-13T23:13:38.252Z,6.33
2019-05-13T23:16:05.200Z,5.67
2019-05-13T23:18:31.963Z,6.00
2019-05-13T23:21:02.056Z,5.63
2019-05-13T23:23:28.387Z,7.57
2019-05-13T23:25:57.015Z,13.57
2019-05-13T23:28:24.122Z,5.30
2019-05-13T23:30:51.376Z,7.10
2019-05-13T23:33:18.214Z,8.20
2019-05-13T23:35:45.153Z,6.63
2019-05-13T23:38:12.308Z,6.13
2019-05-13T23:40:39.042Z,5.30
2019-05-13T23:43:06.183Z,4.57
2019-05-13T23:45:33.235Z,5.57
2019-05-13T23:48:01.742Z,4.80
2019-05-13T23:50:28.573Z,3.93
2019-05-13T23:52:55.709Z,4.10
2019-05-13T23:55:22.958Z,5.07
2019-05-13T23:57:49.799Z,4.47
